createdAt,value
2023-02-19T13:15:43.181Z,2.30
2023-02-19T13:18:24.171Z,2.30
2023-02-19T13:20:51.837Z,1.88
2023-02-19T13:26:37.583Z,3.00
2023-02-19T13:29:14.192Z,2.78
2023-02-19T13:32:17.616Z,2.58
2023-02-19T13:35:35.378Z,3.00
2023-02-19T13:38:04.066Z,2.88
2023-02-19T13:40:34.168Z,2.60
2023-02-19T13:43:22.305Z,2.80
2023-02-19T13:45:56.561Z,2.50
2023-02-19T13:48:32.216Z,2.47
2023-02-19T13:51:17.800Z,2.58
2023-02-19T13:53:48.085Z,2.70
2023-02-19T13:56:29.736Z,2.50
2023-02-19T13:59:03.328Z,2.80
2023-02-19T14:01:51.512Z,2.83
2023-02-19T14:04:42.629Z,2.53
2023-02-19T14:07:09.146Z,2.83
2023-02-19T14:09:41.304Z,3.10
2023-02-19T14:12:10.716Z,2.72
2023-02-19T14:14:38.047Z,3.17
2023-02-19T14:17:12.345Z,3.08
2023-02-19T14:19:41.523Z,2.70
2023-02-19T14:22:46.125Z,2.58
2023-02-19T14:25:29.192Z,2.63
2023-02-19T14:28:17.265Z,2.67
2023-02-19T14:30:51.150Z,2.60
2023-02-19T14:33:21.257Z,1.98
2023-02-19T14:35:53.918Z,2.38
2023-02-19T14:38:26.034Z,2.38
2023-02-19T14:40:54.257Z,2.42
2023-02-19T14:43:25.150Z,2.85
2023-02-19T14:46:24.469Z,2.28
2023-02-19T14:48:53.657Z,1.85
2023-02-19T14:51:41.949Z,2.30
2023-02-19T14:54:17.743Z,2.22
2023-02-19T14:56:48.287Z,1.98
2023-02-19T14:59:30.374Z,1.90
2023-02-19T15:02:04.582Z,2.00
2023-02-19T15:04:36.613Z,1.98
2023-02-19T15:09:46.532Z,1.75
2023-02-19T15:12:30.524Z,2.00
2023-02-19T15:15:04.883Z,1.90
2023-02-19T15:17:34.177Z,1.95
2023-02-19T15:20:05.433Z,1.90
2023-02-19T15:22:32.646Z,2.00
2023-02-19T15:25:03.670Z,2.22
2023-02-19T15:27:30.547Z,2.00
2023-02-19T15:29:59.684Z,2.40
2023-02-19T15:32:28.243Z,1.90
2023-02-19T15:35:01.067Z,2.42
2023-02-19T15:37:36.675Z,2.45
2023-02-19T15:40:07.705Z,3.10
2023-02-19T15:42:35.944Z,3.00
2023-02-19T15:45:34.647Z,3.40
2023-02-19T15:48:09.384Z,3.47
2023-02-19T15:50:40.391Z,3.83
2023-02-19T15:53:23.536Z,3.30
2023-02-19T15:56:02.441Z,3.90
2023-02-19T15:58:53.036Z,4.03
2023-02-19T16:01:25.365Z,3.78
2023-02-19T16:03:54.082Z,4.78
2023-02-19T16:06:21.551Z,4.30
2023-02-19T16:09:06.290Z,4.68
2023-02-19T16:11:47.623Z,4.63
2023-02-19T16:14:17.643Z,3.97
2023-02-19T16:16:49.089Z,4.38
2023-02-19T16:19:28.607Z,6.45
2023-02-19T16:21:56.200Z,4.80
2023-02-19T16:24:25.797Z,5.55
2023-02-19T16:26:54.409Z,6.80
2023-02-19T16:29:28.292Z,6.90
2023-02-19T16:32:08.507Z,4.72
2023-02-19T16:34:49.254Z,4.85
2023-02-19T16:37:41.611Z,5.70
2023-02-19T16:42:36.825Z,6.35
2023-02-19T16:45:04.860Z,5.55
2023-02-19T16:47:38.098Z,6.30
2023-02-19T16:50:15.454Z,6.68
2023-02-19T16:52:59.879Z,9.25
2023-02-19T16:55:29.036Z,7.78
2023-02-19T16:57:55.586Z,7.60
2023-02-19T17:00:28.254Z,6.72
2023-02-19T17:02:59.624Z,6.30
2023-02-19T17:05:31.160Z,5.63
2023-02-19T17:07:58.179Z,4.13
2023-02-19T17:10:28.578Z,3.85
2023-02-19T17:12:56.000Z,3.53
2023-02-19T17:15:23.797Z,2.92
2023-02-19T17:17:50.464Z,2.45
2023-02-19T17:20:26.660Z,2.30
2023-02-19T17:23:01.532Z,2.38
2023-02-19T17:25:28.020Z,1.90
2023-02-19T17:28:00.548Z,2.10
2023-02-19T17:30:39.920Z,1.98
2023-02-19T17:33:06.865Z,2.38
2023-02-19T18:38:54.065Z,4.05
2023-02-19T18:41:21.940Z,3.55
2023-02-19T18:43:55.519Z,3.80
2023-02-19T18:46:23.567Z,4.15
2023-02-19T18:49:04.513Z,3.65
2023-02-19T18:51:31.014Z,3.53
2023-02-19T18:54:08.528Z,4.03
2023-02-19T18:56:43.439Z,3.53
2023-02-19T18:59:19.483Z,3.97
2023-02-19T19:01:55.786Z,3.47
2023-02-19T19:04:24.079Z,3.60
2023-02-19T19:06:57.493Z,4.00
2023-02-19T19:09:24.296Z,3.78
2023-02-19T19:11:59.832Z,3.85
2023-02-19T19:14:28.641Z,3.70
2023-02-19T19:16:56.876Z,4.00
2023-02-19T19:19:29.492Z,4.03
2023-02-19T19:21:58.636Z,5.40
2023-02-19T19:24:31.562Z,4.88
2023-02-19T19:26:58.064Z,4.78
2023-02-19T19:29:24.844Z,4.40
2023-02-19T19:31:58.632Z,4.15
2023-02-19T19:37:22.872Z,5.18
2023-02-19T19:39:55.445Z,4.82
2023-02-19T19:42:28.466Z,4.53
2023-02-19T19:47:21.667Z,4.57
2023-02-19T19:49:48.152Z,4.55
2023-02-19T19:52:21.692Z,5.30
2023-02-19T19:54:48.185Z,5.80
2023-02-19T19:58:01.677Z,5.05
2023-02-19T20:00:28.096Z,4.35
2023-02-19T20:03:01.757Z,5.32
2023-02-19T20:05:34.888Z,5.03
2023-02-19T20:08:01.385Z,5.15
2023-02-19T20:10:36.800Z,5.63
2023-02-19T20:13:09.890Z,5.95
2023-02-19T20:15:42.658Z,5.45
2023-02-19T20:18:15.662Z,6.03
2023-02-19T20:20:42.146Z,6.82
2023-02-19T20:23:17.638Z,6.70
2023-02-19T20:25:50.638Z,6.13
2023-02-19T20:28:17.073Z,7.07
2023-02-19T20:30:50.774Z,6.85
2023-02-19T20:33:19.378Z,7.28
2023-02-19T20:35:46.959Z,6.53
2023-02-19T20:38:23.656Z,7.03
2023-02-19T20:40:56.631Z,6.85
2023-02-19T20:43:29.637Z,7.32
2023-02-19T20:46:02.628Z,6.97
2023-02-19T20:48:29.175Z,6.07
2023-02-19T20:51:06.628Z,6.15
2023-02-19T20:53:41.687Z,7.38
2023-02-19T20:56:08.570Z,6.40
2023-02-19T20:58:35.007Z,7.10
2023-02-19T21:01:07.612Z,6.68
2023-02-19T21:03:40.628Z,6.80
2023-02-19T21:06:13.873Z,6.82
2023-02-19T21:08:46.590Z,6.50
2023-02-19T21:11:26.662Z,3.83
2023-02-19T21:14:00.599Z,6.88
2023-02-19T21:16:29.353Z,7.15
2023-02-19T21:19:03.623Z,6.55
2023-02-19T21:21:31.434Z,7.30
2023-02-19T21:24:05.609Z,5.80
2023-02-19T21:26:37.004Z,6.57
2023-02-19T21:29:11.875Z,7.22
2023-02-19T21:31:47.745Z,5.25
2023-02-19T21:34:24.600Z,6.35
2023-02-19T21:36:51.378Z,6.00
2023-02-19T21:39:26.641Z,8.02
2023-02-19T21:41:59.616Z,6.40
2023-02-19T21:44:26.135Z,6.35
2023-02-19T21:47:00.587Z,6.32
2023-02-19T21:49:33.608Z,5.63
2023-02-19T21:52:00.036Z,5.47
2023-02-19T21:54:32.573Z,4.95
2023-02-19T21:57:02.084Z,4.50
2023-02-19T21:59:34.587Z,5.00
2023-02-19T22:02:07.599Z,4.72
2023-02-19T22:04:36.334Z,4.63
2023-02-19T22:07:09.594Z,4.95
2023-02-19T22:09:42.577Z,4.88
2023-02-19T22:12:16.602Z,5.43
2023-02-19T22:14:43.172Z,4.93
2023-02-19T22:17:16.570Z,4.22
2023-02-19T22:19:43.119Z,3.85
2023-02-19T22:22:16.571Z,4.90
2023-02-19T22:24:43.078Z,4.72
2023-02-19T22:27:16.898Z,4.40
2023-02-19T22:29:43.323Z,4.45
2023-02-19T22:32:16.655Z,4.45
2023-02-19T22:34:49.584Z,3.95
2023-02-19T22:37:22.559Z,4.60
2023-02-19T22:39:48.987Z,4.35
2023-02-19T22:42:28.563Z,4.32
2023-02-19T22:45:01.560Z,4.70
2023-02-19T22:47:34.563Z,3.90
2023-02-19T22:50:07.683Z,4.55
2023-02-19T22:52:34.117Z,4.32
2023-02-19T22:55:07.565Z,2.55
2023-02-19T22:57:42.554Z,4.10
2023-02-19T23:00:20.880Z,4.22
2023-02-19T23:02:54.552Z,4.28
2023-02-19T23:05:24.844Z,4.47
2023-02-19T23:07:57.828Z,4.10
2023-02-19T23:10:24.286Z,4.25
2023-02-19T23:12:57.632Z,4.88
2023-02-19T23:15:24.037Z,4.72
2023-02-19T23:17:56.533Z,4.85
2023-02-19T23:20:23.147Z,5.40
2023-02-19T23:22:56.807Z,5.72
2023-02-19T23:25:23.272Z,5.63
2023-02-19T23:27:56.552Z,6.95
2023-02-19T23:30:29.718Z,6.38
2023-02-19T23:33:02.552Z,6.53
2023-02-19T23:35:35.539Z,7.13
2023-02-19T23:38:08.583Z,6.95
2023-02-19T23:40:41.552Z,6.25
2023-02-19T23:43:14.524Z,6.72
2023-02-19T23:45:47.583Z,6.38
2023-02-19T23:48:14.244Z,6.68
2023-02-19T23:50:47.537Z,6.68
2023-02-19T23:53:14.068Z,7.30
2023-02-19T23:55:48.526Z,7.10
2023-02-19T23:58:15.241Z,6.40
